Progress, Oregon
Current Conditions -  °F | °C
As of 9:53 AM on Thursday 30 Oct 2014 (Local Time) from KHIO Reporting Station
Overcast Overcast  
Wind Chill: 13°   Ceiling: 4900
Heat Index: 13°   Visibility: 9mi
Dew Point: 13°   Wind: 5mph
Humidity: 100%   Direction: 360°N
Pressure: 29.85"   Gusts: NA
Location:  45.4908°N, 122.804°W
Report Text: KHIO 301653Z 36004KT 9SM BKN049 OVC060 13/13 A2985 RMK AO2 RAE10 SLP108 P0001 T01280128
Loading
Personal Weather Stations






























Interactive Weather Map
Tropical Storm Tracking
New forecast layout! Learn more

10-Day Weather Forecast

Advertisements
Track Severe Weather on mobile